Time;durP1;ratioP1;P1;durP2;ratioP2;P2;SDS_P1;SDS_P2;PMS_P1;PMS_P2;Temp;Humidity;BMP_temperature;BMP_pressure;BME280_temperature;BME280_humidity;BME280_pressure;Samples;Min_cycle;Max_cycle;Signal;HPM_P1;HPM_P2
2023/05/27 00:00:32;;;;;;;1.38;0.77;;;;;;;25.61;35.76;102837.69;5009179;28;97406;-76
2023/05/27 00:03:00;;;;;;;2.17;1.27;;;;;;;25.62;35.82;102844.91;5008136;28;98887;-76
2023/05/27 00:05:27;;;;;;;1.58;1.08;;;;;;;25.61;35.30;102838.56;5009240;28;96747;-76
2023/05/27 00:07:53;;;;;;;0.98;0.70;;;;;;;25.60;35.83;102839.56;5010012;28;97044;-76
2023/05/27 00:10:20;;;;;;;0.85;0.63;;;;;;;25.61;35.75;102841.31;5009386;28;98887;-76
2023/05/27 00:12:47;;;;;;;1.00;0.80;;;;;;;25.61;35.88;102843.19;5009418;28;97956;-76
2023/05/27 00:15:14;;;;;;;1.58;0.80;;;;;;;25.60;35.83;102830.47;5009464;28;97430;-76
2023/05/27 00:17:42;;;;;;;1.45;0.88;;;;;;;25.59;35.64;102835.09;5009894;28;96864;-76
2023/05/27 00:20:09;;;;;;;0.95;0.73;;;;;;;25.60;35.85;102835.97;5009597;28;97501;-76
2023/05/27 00:22:36;;;;;;;1.17;0.70;;;;;;;25.59;35.81;102835.09;5008031;28;96786;-76
2023/05/27 00:25:04;;;;;;;1.50;0.65;;;;;;;25.59;35.85;102835.09;5007299;28;97102;-76
2023/05/27 00:27:30;;;;;;;1.50;0.75;;;;;;;25.58;35.99;102836.13;5009127;28;96869;-76
2023/05/27 00:29:57;;;;;;;1.05;0.70;;;;;;;25.58;36.00;102829.75;5009193;28;97295;-76
2023/05/27 00:32:23;;;;;;;1.42;0.70;;;;;;;25.58;35.72;102822.38;4998440;28;96773;-76
2023/05/27 00:34:50;;;;;;;1.40;0.80;;;;;;;25.58;35.86;102827.00;4998886;28;96697;-76
2023/05/27 00:37:16;;;;;;;1.73;1.00;;;;;;;25.58;35.79;102827.00;5007349;28;97233;-76
2023/05/27 00:39:43;;;;;;;1.10;0.80;;;;;;;25.58;35.82;102827.00;5009492;28;97142;-76
2023/05/27 00:42:10;;;;;;;1.00;0.70;;;;;;;25.57;35.78;102826.13;5009798;28;96790;-76
2023/05/27 00:44:37;;;;;;;1.35;0.90;;;;;;;25.57;36.10;102830.78;5008919;28;96883;-75
2023/05/27 00:47:03;;;;;;;0.95;0.75;;;;;;;25.56;35.75;102829.91;4996190;28;97760;-76
2023/05/27 00:49:30;;;;;;;1.52;1.00;;;;;;;25.56;35.75;102829.06;5012302;28;97014;-76
2023/05/27 00:51:56;;;;;;;0.98;0.70;;;;;;;25.56;35.89;102834.56;5012822;28;97415;-76
2023/05/27 00:54:24;;;;;;;1.20;0.75;;;;;;;25.56;35.84;102831.81;5012186;28;96999;-76
2023/05/27 00:56:51;;;;;;;1.77;1.10;;;;;;;25.55;35.68;102827.31;5011053;28;97077;-75
2023/05/27 00:59:17;;;;;;;1.33;0.88;;;;;;;25.55;35.91;102821.81;5011567;28;97970;-76
2023/05/27 01:01:44;;;;;;;1.50;0.80;;;;;;;25.54;35.68;102815.44;5012508;28;98095;-76
2023/05/27 01:04:12;;;;;;;1.25;0.80;;;;;;;25.54;36.01;102820.94;5011059;28;96795;-76
2023/05/27 01:06:58;;;;;;;1.35;0.80;;;;;;;25.55;35.69;102819.94;5011571;28;96745;-76
2023/05/27 01:09:44;;;;;;;1.20;0.70;;;;;;;25.53;35.96;102816.47;5011907;28;100068;-76
2023/05/27 01:12:43;;;;;;;1.25;0.73;;;;;;;25.52;35.83;102808.38;5012240;28;97478;-76
2023/05/27 01:15:12;;;;;;;1.38;0.80;;;;;;;25.50;35.56;102804.94;5008718;28;96750;-76
2023/05/27 01:17:42;;;;;;;1.05;0.60;;;;;;;25.50;35.75;102808.53;5010794;28;96729;-76
2023/05/27 01:20:14;;;;;;;1.17;0.80;;;;;;;25.52;35.92;102808.38;5010232;28;100765;-76
2023/05/27 01:22:42;;;;;;;2.13;0.93;;;;;;;25.50;35.97;102803.03;5013260;28;99539;-76
2023/05/27 01:25:10;;;;;;;1.77;0.80;;;;;;;25.50;35.87;102802.16;5002482;28;97717;-76
2023/05/27 01:27:40;;;;;;;1.17;0.73;;;;;;;25.49;35.82;102804.06;5011607;28;97017;-75
2023/05/27 01:30:07;;;;;;;1.33;0.77;;;;;;;25.50;35.91;102804.94;5011982;28;96860;-75
2023/05/27 01:32:43;;;;;;;1.42;0.82;;;;;;;25.50;35.68;102799.41;5011830;28;97688;-76
2023/05/27 01:35:24;;;;;;;1.40;0.82;;;;;;;25.50;36.00;102793.91;5012314;28;96724;-76
2023/05/27 01:37:52;;;;;;;0.75;0.60;;;;;;;25.48;36.00;102794.09;5010137;28;96772;-76
2023/05/27 01:40:21;;;;;;;0.93;0.60;;;;;;;25.48;35.94;102799.59;4993359;28;97718;-76
2023/05/27 01:42:48;;;;;;;1.30;0.68;;;;;;;25.48;35.89;102798.72;5010240;28;99848;-76
2023/05/27 01:45:16;;;;;;;1.30;0.70;;;;;;;25.48;36.10;102806.97;5009957;28;96797;-76
2023/05/27 01:47:44;;;;;;;1.25;0.75;;;;;;;25.48;35.93;102799.59;5012132;28;97170;-76
2023/05/27 01:50:11;;;;;;;1.25;0.70;;;;;;;25.48;35.80;102793.22;5011536;28;96636;-76
2023/05/27 01:52:38;;;;;;;0.90;0.77;;;;;;;25.47;35.95;102797.00;5009684;28;99074;-76
2023/05/27 01:55:05;;;;;;;0.75;0.50;;;;;;;25.46;35.95;102792.50;5010293;28;97498;-76
2023/05/27 01:57:32;;;;;;;1.73;0.70;;;;;;;25.46;35.81;102796.13;4993799;28;97888;-76
2023/05/27 01:59:59;;;;;;;1.83;0.70;;;;;;;25.46;35.99;102800.75;5009827;28;99836;-76
2023/05/27 02:02:25;;;;;;;1.40;0.88;;;;;;;25.45;36.05;102802.66;5009804;28;98578;-76
2023/05/27 02:04:52;;;;;;;0.93;0.75;;;;;;;25.45;35.91;102788.91;5010730;28;96588;-76
2023/05/27 02:07:20;;;;;;;1.42;0.80;;;;;;;25.44;35.96;102789.91;5009884;28;97129;-76
2023/05/27 02:09:48;;;;;;;1.33;0.60;;;;;;;25.44;35.92;102791.81;5009676;28;100629;-76
2023/05/27 02:12:14;;;;;;;1.20;0.73;;;;;;;25.45;36.05;102790.78;5008540;28;99383;-76
2023/05/27 02:14:41;;;;;;;1.15;0.80;;;;;;;25.45;36.02;102796.28;5010786;28;97087;-76
2023/05/27 02:17:08;;;;;;;0.95;0.60;;;;;;;25.44;36.00;102797.31;5011138;28;96718;-76
2023/05/27 02:19:35;;;;;;;1.25;0.60;;;;;;;25.44;35.90;102797.31;5009723;28;100448;-76
2023/05/27 02:22:06;;;;;;;1.50;1.02;;;;;;;25.42;35.85;102783.72;4993905;28;99517;-76
2023/05/27 02:24:35;;;;;;;1.38;0.70;;;;;;;25.42;35.88;102789.22;5009146;28;97219;-76
2023/05/27 02:27:02;;;;;;;1.30;0.80;;;;;;;25.42;36.13;102793.84;5009822;28;96685;-76
2023/05/27 02:29:28;;;;;;;1.50;0.90;;;;;;;25.42;35.90;102793.84;5008940;28;101034;-76
2023/05/27 02:31:55;;;;;;;0.80;0.60;;;;;;;25.42;35.45;102793.84;5009539;28;100819;-76
2023/05/27 02:34:24;;;;;;;1.10;0.63;;;;;;;25.42;36.01;102793.84;5009523;28;97154;-76
2023/05/27 02:36:51;;;;;;;1.10;0.70;;;;;;;25.40;35.68;102788.50;5009462;28;97216;-76
2023/05/27 02:39:18;;;;;;;0.88;0.70;;;;;;;25.39;35.89;102789.53;5003848;28;99031;-76
2023/05/27 02:41:44;;;;;;;1.05;0.70;;;;;;;25.40;36.29;102791.25;5006548;28;97109;-76
2023/05/27 02:44:12;;;;;;;1.27;0.63;;;;;;;25.39;35.89;102797.78;5009374;28;96812;-76
2023/05/27 02:46:38;;;;;;;1.33;0.75;;;;;;;25.40;36.10;102798.66;5013701;28;97004;-76
2023/05/27 02:49:05;;;;;;;1.20;0.82;;;;;;;25.39;36.02;102802.44;5009360;28;100373;-76
2023/05/27 02:51:33;;;;;;;0.98;0.80;;;;;;;25.39;35.95;102802.44;5009216;28;98321;-76
2023/05/27 02:53:59;;;;;;;1.10;0.80;;;;;;;25.37;35.85;102802.59;5008425;28;96902;-76
2023/05/27 02:56:27;;;;;;;1.15;0.82;;;;;;;25.38;35.79;102803.44;5011031;28;96647;-76
2023/05/27 02:58:54;;;;;;;1.10;0.73;;;;;;;25.37;36.11;102801.72;5009231;28;99058;-76
2023/05/27 03:01:22;;;;;;;0.88;0.70;;;;;;;25.37;36.14;102797.09;5010474;28;96817;-76
2023/05/27 03:03:48;;;;;;;1.10;0.60;;;;;;;25.37;36.00;102801.72;5009985;28;96760;-76
2023/05/27 03:06:15;;;;;;;1.35;0.90;;;;;;;25.34;35.74;102801.00;5010742;28;96906;-76
2023/05/27 03:08:42;;;;;;;0.88;0.65;;;;;;;25.34;35.84;102803.75;4988703;28;98802;-76
2023/05/27 03:11:08;;;;;;;1.15;0.68;;;;;;;25.36;36.06;102805.50;5002481;28;97373;-76
2023/05/27 03:13:35;;;;;;;0.95;0.80;;;;;;;25.36;35.59;102811.00;5010273;28;96823;-76
2023/05/27 03:16:03;;;;;;;1.13;0.80;;;;;;;25.35;35.91;102804.63;4992407;28;96749;-76
2023/05/27 03:18:30;;;;;;;0.93;0.65;;;;;;;25.33;35.83;102801.19;5008346;28;98694;-76
2023/05/27 03:20:56;;;;;;;1.20;0.70;;;;;;;25.33;35.94;102802.03;5009355;28;96903;-76
2023/05/27 03:23:23;;;;;;;1.08;0.77;;;;;;;25.32;36.04;102814.06;5001826;28;97091;-76
2023/05/27 03:25:50;;;;;;;1.05;0.70;;;;;;;25.32;35.87;102808.56;5003741;28;97255;-76
2023/05/27 03:28:17;;;;;;;1.52;0.80;;;;;;;25.32;36.04;102810.44;5007869;28;99973;-76
2023/05/27 03:30:43;;;;;;;1.00;0.60;;;;;;;25.32;36.07;102803.06;5009018;28;96870;-76
2023/05/27 03:33:22;;;;;;;1.30;0.80;;;;;;;25.31;36.02;102792.22;4998312;28;96847;-76
2023/05/27 03:35:50;;;;;;;0.80;0.60;;;;;;;25.31;36.06;102792.22;5010030;28;96949;-76
2023/05/27 03:38:17;;;;;;;1.33;0.70;;;;;;;25.30;36.00;102790.50;5009151;28;97351;-76
2023/05/27 03:40:44;;;;;;;1.60;0.82;;;;;;;25.31;35.82;102789.47;5008503;28;100158;-76
2023/05/27 03:43:11;;;;;;;1.08;0.60;;;;;;;25.30;35.71;102796.84;5008498;28;96707;-76
2023/05/27 03:45:37;;;;;;;1.45;0.70;;;;;;;25.30;36.14;102793.25;5008030;28;96651;-76
2023/05/27 03:48:04;;;;;;;1.00;0.80;;;;;;;25.29;35.94;102786.00;5009374;28;97506;-76
2023/05/27 03:50:33;;;;;;;1.05;0.65;;;;;;;25.29;36.13;102786.88;5008189;28;99340;-76
2023/05/27 03:53:02;;;;;;;1.58;1.05;;;;;;;25.29;35.88;102786.88;5008119;28;96923;-76
2023/05/27 03:55:28;;;;;;;0.85;0.63;;;;;;;25.28;35.96;102778.78;4991310;28;96989;-76
2023/05/27 03:57:55;;;;;;;1.23;0.70;;;;;;;25.27;35.92;102783.41;5007856;28;99154;-76
2023/05/27 04:00:22;;;;;;;1.27;0.68;;;;;;;25.28;36.01;102773.28;5009762;28;97556;-76
2023/05/27 04:02:49;;;;;;;1.60;0.80;;;;;;;25.28;35.92;102778.78;5008694;28;96884;-76
2023/05/27 04:05:16;;;;;;;0.88;0.70;;;;;;;25.28;35.64;102773.28;5009178;28;96766;-75
2023/05/27 04:07:43;;;;;;;1.17;0.60;;;;;;;25.27;36.09;102779.81;5010561;28;96760;-76
2023/05/27 04:10:10;;;;;;;0.60;0.52;;;;;;;25.26;36.08;102776.16;5009117;28;97415;-76
2023/05/27 04:12:39;;;;;;;1.35;0.82;;;;;;;25.27;35.92;102779.81;4999734;28;96881;-76
2023/05/27 04:15:07;;;;;;;0.90;0.60;;;;;;;25.26;35.84;102776.16;5020822;28;96694;-76
2023/05/27 04:17:35;;;;;;;1.08;0.65;;;;;;;25.26;36.22;102778.91;4991560;28;98975;-76
2023/05/27 04:20:11;;;;;;;1.23;0.75;;;;;;;25.25;36.07;102779.06;5009501;28;97100;-76
2023/05/27 04:22:37;;;;;;;1.20;0.70;;;;;;;25.25;36.10;102771.69;4991116;28;97242;-76
2023/05/27 04:25:05;;;;;;;0.68;0.55;;;;;;;25.25;36.04;102776.31;5012882;28;97364;-75
2023/05/27 04:27:43;;;;;;;1.17;0.70;;;;;;;25.24;35.99;102766.34;4995617;28;96906;-76
2023/05/27 04:30:10;;;;;;;1.30;0.70;;;;;;;25.24;36.11;102772.72;5011277;28;96800;-76
2023/05/27 04:32:37;;;;;;;1.08;0.60;;;;;;;25.24;35.91;102764.44;5011035;28;96709;-76
2023/05/27 04:35:08;;;;;;;1.00;0.70;;;;;;;25.23;36.15;102762.72;5012277;28;97271;-76
2023/05/27 04:37:40;;;;;;;1.35;1.00;;;;;;;25.22;36.06;102754.63;5011664;28;97721;-75
2023/05/27 04:40:10;;;;;;;0.90;0.70;;;;;;;25.23;36.08;102756.38;5011070;28;96778;-76
2023/05/27 04:42:54;;;;;;;1.23;0.70;;;;;;;25.22;35.93;102751.88;5011287;28;97204;-76
2023/05/27 04:45:21;;;;;;;0.63;0.60;;;;;;;25.23;36.14;102753.63;5010118;28;97280;-76
2023/05/27 04:47:48;;;;;;;0.80;0.80;;;;;;;25.22;35.78;102752.75;5010039;28;98061;-76
2023/05/27 04:50:18;;;;;;;0.80;0.63;;;;;;;25.22;36.03;102755.50;4994923;28;96906;-76
2023/05/27 04:52:45;;;;;;;0.95;0.80;;;;;;;25.22;35.82;102749.13;5010490;28;96987;-76
2023/05/27 04:55:12;;;;;;;1.13;0.80;;;;;;;25.21;35.91;102752.91;5010543;28;98002;-76
2023/05/27 04:57:43;;;;;;;1.02;0.82;;;;;;;25.20;36.07;102752.03;4998003;28;99268;-76
2023/05/27 05:02:39;;;;;;;0.80;0.60;;;;;;;25.20;35.74;102752.03;5011175;28;96886;-76
2023/05/27 05:05:10;;;;;;;1.00;0.70;;;;;;;25.21;36.08;102752.91;5010550;28;97499;-76
2023/05/27 05:07:37;;;;;;;0.90;0.70;;;;;;;25.20;35.91;102751.19;4993988;28;100257;-76
2023/05/27 05:10:06;;;;;;;1.35;0.70;;;;;;;25.21;35.99;102751.03;4993734;28;99373;-76
2023/05/27 05:12:37;;;;;;;1.23;0.80;;;;;;;25.20;35.98;102751.19;5002371;28;96789;-76
2023/05/27 05:15:05;;;;;;;1.13;0.70;;;;;;;25.20;36.09;102746.53;5007226;28;96878;-76
2023/05/27 05:17:32;;;;;;;0.88;0.70;;;;;;;25.20;35.83;102749.28;5010469;28;99930;-76
2023/05/27 05:19:59;;;;;;;1.52;0.80;;;;;;;25.20;36.27;102745.69;5007015;28;100461;-75
2023/05/27 05:22:28;;;;;;;0.70;0.60;;;;;;;25.20;36.04;102746.53;4991236;28;96660;-76
2023/05/27 05:24:55;;;;;;;1.13;0.80;;;;;;;25.20;36.10;102740.19;5008293;28;96857;-76
2023/05/27 05:27:37;;;;;;;0.90;0.57;;;;;;;25.19;35.77;102733.81;5008778;28;98115;-76
2023/05/27 05:30:05;;;;;;;0.95;0.60;;;;;;;25.20;36.22;102745.69;4997317;28;96727;-76
2023/05/27 05:32:31;;;;;;;1.00;0.60;;;;;;;25.20;36.04;102742.94;4993580;28;96838;-76
2023/05/27 05:34:58;;;;;;;0.80;0.65;;;;;;;25.19;35.62;102750.31;5010157;28;96656;-76
2023/05/27 05:37:26;;;;;;;1.20;0.50;;;;;;;25.20;35.89;102748.44;5009583;28;97975;-76
2023/05/27 05:39:55;;;;;;;1.15;0.70;;;;;;;25.20;35.76;102743.78;5011279;28;98285;-76
2023/05/27 05:42:24;;;;;;;0.80;0.55;;;;;;;25.19;35.87;102733.81;5014280;27;96778;-76
2023/05/27 05:44:52;;;;;;;0.65;0.52;;;;;;;25.19;36.04;102732.97;5009943;28;97067;-76
2023/05/27 05:47:19;;;;;;;0.80;0.55;;;;;;;25.19;35.94;102728.31;5009514;28;99688;-76
2023/05/27 05:49:54;;;;;;;0.65;0.60;;;;;;;25.19;35.75;102727.47;5003529;28;97668;-75
2023/05/27 05:52:20;;;;;;;1.50;0.82;;;;;;;25.19;36.10;102727.47;4993202;28;97124;-76
2023/05/27 05:54:47;;;;;;;0.88;0.60;;;;;;;25.19;35.76;102733.81;5010406;28;97004;-76
2023/05/27 05:57:14;;;;;;;1.17;0.60;;;;;;;25.18;35.88;102718.34;5008848;28;99912;-76
2023/05/27 05:59:41;;;;;;;0.90;0.70;;;;;;;25.20;36.15;102730.03;5009499;28;99193;-76
2023/05/27 06:02:09;;;;;;;1.10;0.70;;;;;;;25.19;36.15;102733.81;5009805;28;97206;-75
2023/05/27 06:04:36;;;;;;;1.17;0.80;;;;;;;25.19;35.83;102736.56;5011141;28;96764;-76
2023/05/27 06:07:03;;;;;;;0.93;0.60;;;;;;;25.19;36.07;102739.31;5009057;28;99100;-75
2023/05/27 06:09:36;;;;;;;1.00;0.60;;;;;;;25.19;36.03;102736.56;5009790;28;99150;-76
2023/05/27 06:12:08;;;;;;;0.95;0.70;;;;;;;25.19;35.89;102730.22;4997783;28;96853;-76
2023/05/27 06:14:40;;;;;;;1.35;0.63;;;;;;;25.19;35.80;102731.06;4996131;28;97042;-76
2023/05/27 06:17:08;;;;;;;0.90;0.75;;;;;;;25.18;35.99;102732.09;4993074;28;96909;-75
2023/05/27 06:19:35;;;;;;;1.17;0.63;;;;;;;25.18;36.13;102723.84;5009773;28;98837;-75
2023/05/27 06:22:02;;;;;;;0.65;0.50;;;;;;;25.18;36.00;102726.59;5009731;28;96994;-75
2023/05/27 06:24:48;;;;;;;1.13;0.70;;;;;;;25.18;36.02;102726.59;5003112;28;97020;-75
2023/05/27 06:27:30;;;;;;;0.55;0.50;;;;;;;25.18;36.12;102728.47;5009228;28;96934;-75
2023/05/27 06:29:56;;;;;;;0.90;0.60;;;;;;;25.17;35.98;102722.13;5009383;28;98391;-75
2023/05/27 06:32:32;;;;;;;1.13;0.60;;;;;;;25.17;36.40;102724.88;5011155;28;96583;-75
2023/05/27 06:34:58;;;;;;;1.00;0.70;;;;;;;25.18;36.17;102718.34;5009192;28;97405;-75
2023/05/27 06:37:25;;;;;;;0.60;0.60;;;;;;;25.18;35.77;102721.09;4991861;28;100574;-75
2023/05/27 06:39:52;;;;;;;0.73;0.57;;;;;;;25.17;35.93;102708.38;5009173;28;99414;-75
2023/05/27 06:42:19;;;;;;;0.82;0.60;;;;;;;25.19;35.84;102709.06;5010164;28;97171;-75
2023/05/27 06:44:55;;;;;;;0.55;0.45;;;;;;;25.18;35.81;102703.72;5008219;28;96842;-75
2023/05/27 06:47:24;;;;;;;0.80;0.60;;;;;;;25.18;35.99;102710.09;5008595;28;100203;-75
2023/05/27 06:49:51;;;;;;;0.60;0.57;;;;;;;25.18;36.04;102707.34;5012470;28;98785;-75
2023/05/27 06:52:19;;;;;;;0.95;0.52;;;;;;;25.19;35.83;102706.31;5010226;28;96960;-75
2023/05/27 06:55:08;;;;;;;1.08;0.60;;;;;;;25.17;35.94;102707.50;5009214;28;97506;-76
2023/05/27 06:57:53;;;;;;;0.90;0.60;;;;;;;25.17;36.11;102700.13;4998801;28;97261;-75
2023/05/27 07:00:27;;;;;;;1.35;0.75;;;;;;;25.17;35.87;102691.00;5008791;28;98966;-75
2023/05/27 07:03:19;;;;;;;1.10;0.50;;;;;;;25.16;36.11;102690.13;5008788;28;97030;-75
2023/05/27 07:05:45;;;;;;;1.63;0.65;;;;;;;25.17;35.57;102691.00;5008240;28;96822;-75
2023/05/27 07:08:13;;;;;;;1.08;0.60;;;;;;;25.17;36.10;102691.00;5004141;28;99491;-75
2023/05/27 07:10:46;;;;;;;0.82;0.60;;;;;;;25.16;35.96;102687.38;5002502;28;97740;-75
2023/05/27 07:13:13;;;;;;;0.70;0.50;;;;;;;25.17;35.77;102686.38;5008575;28;96714;-75
2023/05/27 07:15:46;;;;;;;0.90;0.60;;;;;;;25.18;35.90;102687.22;5005063;28;97271;-75
2023/05/27 07:18:12;;;;;;;1.00;0.60;;;;;;;25.17;36.10;102683.63;5004014;28;99125;-75
2023/05/27 07:20:41;;;;;;;0.75;0.65;;;;;;;25.18;35.95;102682.59;5009230;28;99336;-76
2023/05/27 07:23:10;;;;;;;0.80;0.60;;;;;;;25.18;35.86;102690.84;4985212;28;97184;-75
2023/05/27 07:25:38;;;;;;;1.17;0.60;;;;;;;25.18;36.16;102688.09;5005544;28;96659;-75
2023/05/27 07:28:05;;;;;;;0.90;0.55;;;;;;;25.18;35.93;102688.09;5001833;28;98690;-76
2023/05/27 07:30:36;;;;;;;1.08;0.60;;;;;;;25.18;35.94;102679.84;5007403;28;97730;-75
2023/05/27 07:33:05;;;;;;;0.68;0.52;;;;;;;25.19;35.83;102680.72;5008974;28;97051;-76
2023/05/27 07:35:31;;;;;;;0.70;0.60;;;;;;;25.18;36.00;102679.84;5008578;28;97233;-75
2023/05/27 07:38:00;;;;;;;0.60;0.40;;;;;;;25.19;35.72;102680.72;5009130;28;100312;-76
2023/05/27 07:40:26;;;;;;;0.90;0.70;;;;;;;25.19;35.71;102676.06;5008800;28;99081;-76
2023/05/27 07:42:53;;;;;;;0.63;0.40;;;;;;;25.20;36.07;102669.53;5009021;28;97289;-76
2023/05/27 07:45:22;;;;;;;0.90;0.50;;;;;;;25.20;36.09;102668.69;4990406;28;97309;-75
2023/05/27 07:47:48;;;;;;;0.90;0.60;;;;;;;25.20;35.75;102669.53;5005072;28;99563;-76
2023/05/27 07:50:15;;;;;;;0.80;0.60;;;;;;;25.19;35.75;102670.56;5017994;28;99193;-76
2023/05/27 07:52:44;;;;;;;0.80;0.50;;;;;;;25.20;35.79;102665.94;5008846;28;96646;-76
2023/05/27 07:55:23;;;;;;;1.10;0.80;;;;;;;25.20;36.22;102664.06;5007273;28;97378;-75
2023/05/27 07:57:50;;;;;;;0.82;0.68;;;;;;;25.20;36.00;102657.69;4982686;28;100497;-75
2023/05/27 08:00:17;;;;;;;1.02;0.60;;;;;;;25.21;35.76;102654.78;5008039;28;100539;-76
2023/05/27 08:02:53;;;;;;;0.95;0.68;;;;;;;25.21;35.93;102648.41;5002736;28;97528;-76
2023/05/27 08:05:41;;;;;;;0.85;0.57;;;;;;;25.19;36.01;102654.06;5005176;28;98145;-76
2023/05/27 08:08:18;;;;;;;0.90;0.57;;;;;;;25.20;35.93;102658.56;5012094;28;100672;-75
2023/05/27 08:11:10;;;;;;;0.90;0.55;;;;;;;25.19;35.94;102637.56;5005098;28;97161;-76
2023/05/27 08:13:45;;;;;;;1.10;0.68;;;;;;;25.20;35.89;102652.19;5007880;28;97101;-75
2023/05/27 08:16:35;;;;;;;1.02;0.70;;;;;;;25.20;36.30;102643.94;5003862;28;96950;-75
2023/05/27 08:19:31;;;;;;;1.00;0.63;;;;;;;25.18;35.99;102635.84;4972174;28;97405;-75
2023/05/27 08:22:11;;;;;;;0.70;0.60;;;;;;;25.19;35.81;102634.81;4982926;28;100112;-75
2023/05/27 08:24:57;;;;;;;0.82;0.50;;;;;;;25.18;35.86;102627.59;5007451;28;97202;-75
2023/05/27 08:27:51;;;;;;;1.10;0.75;;;;;;;25.21;36.08;102626.41;5007674;28;96844;-75
2023/05/27 08:30:26;;;;;;;0.70;0.38;;;;;;;25.19;35.87;102626.56;5006388;28;97889;-75
2023/05/27 08:33:03;;;;;;;0.90;0.50;;;;;;;25.20;35.69;102619.19;5020026;28;99085;-75
2023/05/27 08:35:30;;;;;;;0.95;0.55;;;;;;;25.21;35.82;102607.16;5006496;28;96812;-75
2023/05/27 08:37:56;;;;;;;0.63;0.52;;;;;;;25.21;36.01;102605.28;5007166;28;96785;-75
2023/05/27 08:40:27;;;;;;;0.60;0.60;;;;;;;25.21;35.89;102605.28;5006697;28;99858;-75
2023/05/27 08:42:55;;;;;;;1.05;0.60;;;;;;;25.23;35.90;102607.88;4986589;28;97268;-75
2023/05/27 08:45:23;;;;;;;0.93;0.60;;;;;;;25.23;35.97;102608.72;5003499;28;96982;-75
2023/05/27 08:47:49;;;;;;;0.60;0.50;;;;;;;25.23;35.99;102603.22;5000241;28;97077;-75
2023/05/27 08:50:22;;;;;;;0.70;0.40;;;;;;;25.23;35.88;102591.38;5001617;28;97879;-75
2023/05/27 08:52:53;;;;;;;0.80;0.70;;;;;;;25.23;35.91;102592.22;4999311;28;98040;-75
2023/05/27 08:55:26;;;;;;;0.77;0.50;;;;;;;25.23;35.98;102585.88;5022557;28;96629;-75
2023/05/27 08:57:58;;;;;;;0.90;0.60;;;;;;;25.25;35.86;102584.69;5021200;28;97502;-75
2023/05/27 09:00:29;;;;;;;0.57;0.40;;;;;;;25.24;35.93;102582.94;5007387;28;96818;-75
2023/05/27 09:03:02;;;;;;;1.00;0.57;;;;;;;25.23;35.79;102570.22;5006933;28;97615;-75
2023/05/27 09:05:33;;;;;;;1.02;0.68;;;;;;;25.24;35.79;102569.22;5007505;28;96855;-75
2023/05/27 09:08:00;;;;;;;0.50;0.40;;;;;;;25.25;35.99;102572.81;5007438;28;96732;-75
2023/05/27 09:10:45;;;;;;;0.77;0.47;;;;;;;25.26;35.63;102571.78;5011666;28;96728;-75
2023/05/27 09:13:11;;;;;;;1.05;0.60;;;;;;;25.25;35.55;102570.94;5011488;28;97101;-75
2023/05/27 09:15:40;;;;;;;1.05;0.60;;;;;;;25.25;35.84;102573.69;5009106;28;97230;-76
2023/05/27 09:18:06;;;;;;;0.98;0.60;;;;;;;25.27;35.75;102573.53;5005602;28;96772;-76
2023/05/27 09:20:33;;;;;;;0.75;0.60;;;;;;;25.26;35.62;102571.78;5008220;28;96926;-76
2023/05/27 09:23:02;;;;;;;0.70;0.52;;;;;;;25.26;35.57;102561.66;5008272;28;97580;-76
2023/05/27 09:25:29;;;;;;;1.17;0.50;;;;;;;25.27;35.65;102566.16;5008703;28;97173;-76
2023/05/27 09:27:56;;;;;;;1.00;0.50;;;;;;;25.26;36.08;102556.16;4998601;28;97112;-76
2023/05/27 09:30:25;;;;;;;0.88;0.60;;;;;;;25.27;35.80;102557.91;5012255;28;97326;-76
2023/05/27 09:33:05;;;;;;;0.70;0.40;;;;;;;25.28;35.83;102562.38;4994444;28;100514;-76
2023/05/27 09:35:37;;;;;;;0.52;0.40;;;;;;;25.29;35.85;102555.00;5009994;28;96987;-76
2023/05/27 09:38:07;;;;;;;0.73;0.50;;;;;;;25.27;36.00;102548.78;5011475;28;96723;-76
2023/05/27 09:40:37;;;;;;;0.98;0.50;;;;;;;25.28;35.72;102550.53;5010298;28;97738;-76
2023/05/27 09:43:05;;;;;;;0.65;0.43;;;;;;;25.27;35.58;102546.03;5010473;28;97545;-76
2023/05/27 09:45:32;;;;;;;0.70;0.50;;;;;;;25.28;35.85;102545.88;5011654;28;96854;-76
2023/05/27 09:48:01;;;;;;;0.68;0.50;;;;;;;25.29;35.64;102546.75;5010466;28;97357;-77
2023/05/27 09:50:29;;;;;;;1.02;0.60;;;;;;;25.28;35.71;102534.03;4998414;28;97024;-76
2023/05/27 09:52:57;;;;;;;0.73;0.60;;;;;;;25.29;35.59;102528.34;5008078;28;99587;-76
2023/05/27 09:55:36;;;;;;;1.80;0.50;;;;;;;25.29;35.87;102533.00;5010768;28;97737;-76
2023/05/27 09:58:03;;;;;;;1.02;0.93;;;;;;;25.29;35.58;102525.59;5009537;28;96978;-76
2023/05/27 10:00:32;;;;;;;0.60;0.43;;;;;;;25.29;35.71;102525.59;5008969;28;99826;-76
2023/05/27 10:03:00;;;;;;;0.40;0.40;;;;;;;25.29;35.61;102516.50;5009464;28;97343;-76
2023/05/27 10:05:28;;;;;;;0.95;0.70;;;;;;;25.31;35.72;102522.69;5011152;28;96640;-76
2023/05/27 10:07:54;;;;;;;0.80;0.55;;;;;;;25.29;35.77;102509.09;5008071;28;96757;-76
2023/05/27 10:10:24;;;;;;;1.00;0.63;;;;;;;25.30;35.57;102507.22;5002193;28;97603;-76
2023/05/27 10:12:53;;;;;;;0.90;0.73;;;;;;;25.30;35.82;102499.81;5011222;28;97641;-76
2023/05/27 10:15:27;;;;;;;0.85;0.50;;;;;;;25.32;35.66;102507.91;5010057;28;97182;-76
2023/05/27 10:17:55;;;;;;;0.95;0.70;;;;;;;25.30;35.58;102499.81;4999902;28;97034;-76
2023/05/27 10:20:28;;;;;;;0.70;0.60;;;;;;;25.31;35.52;102508.94;5009671;28;100143;-76
2023/05/27 10:22:56;;;;;;;0.63;0.52;;;;;;;25.30;35.71;102510.81;5010891;28;99273;-76
2023/05/27 10:25:35;;;;;;;0.75;0.50;;;;;;;25.30;35.84;102505.31;5010413;28;96857;-76
2023/05/27 10:28:02;;;;;;;0.88;0.57;;;;;;;25.31;35.82;102506.19;5010380;28;96937;-76
2023/05/27 10:30:28;;;;;;;0.88;0.57;;;;;;;25.31;35.57;102504.31;5009430;28;97412;-76
2023/05/27 10:32:55;;;;;;;0.90;0.60;;;;;;;25.31;35.52;102500.69;4994299;28;97315;-76
2023/05/27 10:35:27;;;;;;;0.80;0.50;;;;;;;25.33;35.59;102498.63;5008819;28;97033;-76
2023/05/27 10:37:54;;;;;;;0.85;0.55;;;;;;;25.31;35.72;102490.56;5000309;28;97007;-76
2023/05/27 10:40:25;;;;;;;0.65;0.40;;;;;;;25.33;35.72;102487.63;5011162;28;97178;-76
2023/05/27 10:43:00;;;;;;;0.90;0.60;;;;;;;25.32;35.82;102495.03;5010202;28;97474;-76
2023/05/27 10:45:34;;;;;;;0.60;0.50;;;;;;;25.31;35.71;102485.03;5010739;28;96771;-77
2023/05/27 10:48:01;;;;;;;0.60;0.50;;;;;;;25.31;35.71;102486.94;5010474;28;96887;-76
2023/05/27 10:50:34;;;;;;;0.80;0.60;;;;;;;25.32;35.71;102478.53;5010874;28;97538;-76
2023/05/27 10:53:02;;;;;;;0.98;0.57;;;;;;;25.32;35.73;102477.66;5014134;28;97284;-76
2023/05/27 10:55:31;;;;;;;0.85;0.50;;;;;;;25.32;35.88;102481.28;5005169;28;96738;-75
2023/05/27 10:57:57;;;;;;;1.17;0.60;;;;;;;25.33;35.32;102482.13;4989073;28;96840;-76
2023/05/27 11:00:27;;;;;;;0.50;0.50;;;;;;;25.33;35.76;102469.25;5009847;28;98733;-76
2023/05/27 11:02:54;;;;;;;0.68;0.40;;;;;;;25.34;35.76;102464.59;5007936;28;98395;-76
2023/05/27 11:05:28;;;;;;;0.60;0.52;;;;;;;25.34;35.70;102462.72;5009968;28;97171;-76
2023/05/27 11:07:55;;;;;;;0.68;0.45;;;;;;;25.33;35.65;102460.13;5005945;28;97332;-75
2023/05/27 11:10:21;;;;;;;0.70;0.47;;;;;;;25.33;35.62;102455.50;5010738;28;96889;-75
2023/05/27 11:12:48;;;;;;;0.85;0.50;;;;;;;25.33;35.52;102452.75;5010189;28;97806;-75
2023/05/27 11:15:15;;;;;;;0.90;0.70;;;;;;;25.33;35.69;102447.25;5009435;28;97504;-76
2023/05/27 11:17:41;;;;;;;0.70;0.50;;;;;;;25.33;35.84;102444.50;5010808;28;96884;-75
2023/05/27 11:20:10;;;;;;;0.65;0.50;;;;;;;25.33;35.74;102444.50;5008757;28;98047;-75
2023/05/27 11:22:37;;;;;;;0.75;0.65;;;;;;;25.34;35.41;102434.34;5010854;28;96644;-75
2023/05/27 11:25:05;;;;;;;0.77;0.70;;;;;;;25.34;35.51;102432.47;5010168;28;96792;-75
2023/05/27 11:27:38;;;;;;;0.82;0.60;;;;;;;25.35;35.69;102430.56;5009513;28;96987;-75
2023/05/27 11:30:12;;;;;;;0.82;0.40;;;;;;;25.35;35.76;102427.81;5010102;28;96971;-75
2023/05/27 11:32:41;;;;;;;0.82;0.50;;;;;;;25.34;35.59;102418.72;5008368;28;97130;-76
2023/05/27 11:35:16;;;;;;;0.90;0.70;;;;;;;25.37;35.67;102416.66;5008613;28;96829;-75
2023/05/27 11:37:49;;;;;;;1.10;0.50;;;;;;;25.35;35.61;102419.56;5008420;28;97298;-75